createdAt,value
2018-10-02T00:01:07.536Z,68.10
2018-10-02T00:03:35.755Z,68.00
2018-10-02T00:06:03.954Z,70.20
2018-10-02T00:08:32.159Z,69.40
2018-10-02T00:11:06.022Z,69.00
2018-10-02T00:13:39.823Z,70.00
2018-10-02T00:16:07.975Z,69.80
2018-10-02T00:18:36.180Z,69.50
2018-10-02T00:21:04.427Z,70.20
2018-10-02T00:23:32.621Z,69.00
2018-10-02T00:26:00.791Z,69.80
2018-10-02T00:28:28.954Z,69.80
2018-10-02T00:30:57.123Z,69.10
2018-10-02T00:33:25.346Z,69.80
2018-10-02T00:35:53.623Z,69.00
2018-10-02T00:38:21.970Z,69.10
2018-10-02T00:40:50.212Z,69.20
2018-10-02T00:43:18.471Z,69.70
2018-10-02T00:45:46.655Z,72.30
2018-10-02T00:48:14.803Z,69.90
2018-10-02T00:50:42.980Z,69.40
2018-10-02T00:53:11.145Z,70.50
2018-10-02T00:55:39.282Z,69.20
2018-10-02T00:58:07.523Z,71.20
2018-10-02T01:00:35.778Z,69.50
2018-10-02T01:03:04.046Z,70.20
2018-10-02T01:05:32.200Z,67.90
2018-10-02T01:08:00.320Z,69.60
2018-10-02T01:10:28.482Z,72.20
2018-10-02T01:12:56.623Z,70.80
2018-10-02T01:15:24.911Z,70.40
2018-10-02T01:17:53.080Z,68.10
2018-10-02T01:20:21.339Z,68.20
2018-10-02T01:22:49.556Z,70.40
2018-10-02T01:25:17.897Z,69.60
2018-10-02T01:27:46.067Z,70.00
2018-10-02T01:30:14.296Z,67.20
2018-10-02T01:32:42.507Z,67.70
2018-10-02T01:35:10.706Z,69.20
2018-10-02T01:37:38.903Z,68.80
2018-10-02T01:40:07.116Z,71.20
2018-10-02T01:42:35.360Z,72.00
2018-10-02T01:45:03.558Z,72.00
2018-10-02T01:47:31.711Z,66.80
2018-10-02T01:49:59.873Z,68.60
2018-10-02T01:52:28.103Z,68.80
2018-10-02T01:54:56.294Z,69.70
2018-10-02T01:57:24.494Z,68.00
2018-10-02T01:59:52.654Z,68.80
2018-10-02T02:02:20.850Z,69.50
2018-10-02T02:04:49.045Z,69.40
2018-10-02T02:07:17.811Z,69.00
2018-10-02T02:09:46.023Z,69.70
2018-10-02T02:12:14.189Z,68.20
2018-10-02T02:14:42.348Z,68.00
2018-10-02T02:17:10.507Z,71.50
2018-10-02T02:19:38.700Z,68.70
2018-10-02T02:22:06.886Z,68.30
2018-10-02T02:24:35.011Z,68.90
2018-10-02T02:27:03.129Z,69.30
2018-10-02T02:29:31.387Z,69.70
2018-10-02T02:31:59.546Z,71.00
2018-10-02T02:34:27.711Z,70.20
2018-10-02T02:36:55.904Z,71.30
2018-10-02T02:39:24.078Z,71.70
2018-10-02T02:41:52.354Z,70.70
2018-10-02T02:44:20.564Z,70.70
2018-10-02T02:46:48.752Z,71.80
2018-10-02T02:49:22.680Z,71.70
2018-10-02T02:51:51.052Z,71.70
2018-10-02T02:54:19.275Z,69.20
2018-10-02T02:56:47.619Z,71.00
2018-10-02T02:59:15.795Z,70.40
2018-10-02T03:01:43.959Z,71.80
2018-10-02T03:04:12.139Z,71.80
2018-10-02T03:06:40.335Z,71.70
2018-10-02T03:09:08.612Z,71.80
2018-10-02T03:11:36.693Z,71.60
2018-10-02T03:14:04.832Z,71.90
2018-10-02T03:16:33.047Z,71.20
2018-10-02T03:19:01.269Z,71.40
2018-10-02T03:21:29.701Z,70.40
2018-10-02T03:23:57.869Z,71.60
2018-10-02T03:26:25.991Z,71.60
2018-10-02T03:28:54.200Z,71.60
2018-10-02T03:31:22.423Z,72.00
2018-10-02T03:33:50.676Z,73.00
2018-10-02T03:36:18.883Z,73.60
2018-10-02T03:38:47.098Z,73.50
2018-10-02T03:41:15.540Z,74.40
2018-10-02T03:43:45.555Z,74.70
2018-10-02T03:46:13.762Z,74.60
2018-10-02T03:48:41.943Z,75.00
2018-10-02T03:51:10.160Z,74.40
2018-10-02T03:53:38.337Z,74.40
2018-10-02T03:56:06.519Z,74.70
2018-10-02T03:58:34.723Z,75.50
2018-10-02T04:01:03.050Z,75.30
2018-10-02T04:03:31.346Z,74.40
2018-10-02T04:05:59.463Z,74.00
2018-10-02T04:08:27.659Z,74.10
2018-10-02T04:10:55.804Z,74.00
2018-10-02T04:13:23.949Z,74.70
2018-10-02T04:15:52.106Z,74.50
2018-10-02T04:18:20.288Z,74.10
2018-10-02T04:20:48.552Z,74.90
2018-10-02T04:23:16.676Z,74.60
2018-10-02T04:25:44.858Z,75.50
2018-10-02T04:28:13.073Z,74.70
2018-10-02T04:30:41.248Z,74.60
2018-10-02T04:33:09.413Z,75.10
2018-10-02T04:35:37.827Z,75.20
2018-10-02T04:38:06.087Z,75.20
2018-10-02T04:40:34.347Z,77.20
2018-10-02T04:43:02.540Z,75.90
2018-10-02T04:45:30.686Z,74.90
2018-10-02T04:47:58.921Z,75.10
2018-10-02T04:50:27.099Z,75.10
2018-10-02T04:52:55.290Z,74.80
2018-10-02T04:55:24.337Z,75.40
2018-10-02T04:57:52.547Z,75.40
2018-10-02T05:00:21.533Z,75.40
2018-10-02T05:02:49.723Z,74.80
2018-10-02T05:05:18.248Z,75.60
2018-10-02T05:07:46.445Z,74.60
2018-10-02T05:10:14.651Z,74.70
2018-10-02T05:12:42.804Z,74.80
2018-10-02T05:15:10.967Z,75.20
2018-10-02T05:17:39.098Z,75.70
2018-10-02T05:20:10.307Z,75.40
2018-10-02T05:22:38.495Z,75.50
2018-10-02T05:25:07.315Z,75.80
2018-10-02T05:27:35.629Z,75.00
2018-10-02T05:30:03.885Z,75.80
2018-10-02T05:32:32.010Z,75.90
2018-10-02T05:35:00.220Z,76.90
2018-10-02T05:37:28.387Z,75.90
2018-10-02T05:39:56.579Z,75.40
2018-10-02T05:42:24.781Z,75.30
2018-10-02T05:44:52.999Z,74.90
2018-10-02T05:47:21.196Z,74.90
2018-10-02T05:49:49.383Z,74.50
2018-10-02T05:52:17.604Z,74.60
2018-10-02T05:54:45.763Z,75.20
2018-10-02T05:57:14.058Z,75.40
2018-10-02T05:59:42.222Z,75.30
2018-10-02T06:02:10.503Z,74.80
2018-10-02T06:04:38.617Z,74.40
2018-10-02T06:07:06.841Z,75.40
2018-10-02T06:09:34.960Z,74.90
2018-10-02T06:12:03.166Z,74.00
2018-10-02T06:14:31.446Z,73.20
2018-10-02T06:16:59.761Z,72.60
2018-10-02T06:19:27.896Z,73.10
2018-10-02T06:21:56.039Z,72.80
2018-10-02T06:24:24.196Z,73.00
2018-10-02T06:26:52.349Z,73.10
2018-10-02T06:29:20.468Z,73.20
2018-10-02T06:31:48.665Z,72.60
2018-10-02T06:34:16.849Z,72.50
2018-10-02T06:36:45.052Z,71.20
2018-10-02T06:39:13.194Z,71.00
2018-10-02T06:41:41.384Z,70.10
2018-10-02T06:44:09.530Z,69.20
2018-10-02T06:46:37.800Z,69.70
2018-10-02T06:49:05.983Z,69.00
2018-10-02T06:51:34.186Z,68.70
2018-10-02T06:54:02.394Z,67.40
2018-10-02T06:56:30.651Z,68.10
2018-10-02T06:58:58.760Z,68.40
2018-10-02T07:01:26.943Z,68.00
2018-10-02T07:03:55.184Z,68.40
2018-10-02T07:06:23.356Z,68.10
2018-10-02T07:08:51.704Z,67.70
2018-10-02T07:11:19.863Z,66.40
2018-10-02T07:13:48.018Z,66.10
2018-10-02T07:16:16.191Z,65.70
2018-10-02T07:18:44.329Z,66.00
2018-10-02T07:21:12.552Z,65.10
2018-10-02T07:23:40.747Z,65.30
2018-10-02T07:26:09.305Z,64.80
2018-10-02T07:28:37.681Z,63.60
2018-10-02T07:31:06.328Z,62.90
2018-10-02T07:33:34.482Z,63.00
2018-10-02T07:36:02.710Z,63.10
2018-10-02T07:38:31.096Z,63.10
2018-10-02T07:40:59.293Z,63.20
2018-10-02T07:43:27.779Z,63.30
2018-10-02T07:45:55.978Z,61.60
2018-10-02T07:48:24.130Z,60.90
2018-10-02T07:50:52.382Z,60.00
2018-10-02T07:53:20.540Z,58.50
2018-10-02T07:55:48.799Z,58.20
2018-10-02T07:58:17.023Z,56.50
2018-10-02T08:00:45.253Z,57.90
2018-10-02T08:03:13.379Z,56.80
2018-10-02T08:05:41.847Z,54.30
2018-10-02T08:08:09.989Z,54.40
2018-10-02T08:10:38.135Z,54.30
2018-10-02T08:13:06.364Z,54.40
2018-10-02T08:15:34.547Z,53.20
2018-10-02T08:18:02.806Z,53.20
2018-10-02T08:20:31.077Z,53.20
2018-10-02T08:22:59.850Z,52.80
2018-10-02T08:25:27.959Z,52.40
2018-10-02T08:27:56.227Z,53.00
2018-10-02T08:30:24.481Z,52.30
2018-10-02T08:32:52.753Z,52.20
2018-10-02T08:35:21.005Z,53.10
2018-10-02T08:37:49.106Z,52.80
2018-10-02T08:40:17.331Z,52.60
2018-10-02T08:42:45.511Z,52.70
2018-10-02T08:45:13.763Z,51.90
2018-10-02T08:47:42.029Z,52.40
2018-10-02T08:50:10.174Z,53.10
2018-10-02T08:52:38.414Z,53.10
2018-10-02T08:55:06.611Z,52.20
2018-10-02T08:57:34.867Z,51.30
2018-10-02T09:00:03.297Z,50.70
2018-10-02T09:02:31.470Z,50.20
2018-10-02T09:04:59.615Z,49.90
2018-10-02T09:07:27.793Z,50.10
2018-10-02T09:09:55.968Z,48.40
2018-10-02T09:12:24.229Z,49.20
2018-10-02T09:14:52.388Z,49.30
2018-10-02T09:17:20.581Z,50.30
2018-10-02T09:19:48.747Z,51.10
2018-10-02T09:22:16.983Z,50.90
2018-10-02T09:24:45.235Z,48.90
2018-10-02T09:27:13.400Z,48.60
2018-10-02T09:29:47.316Z,47.70
2018-10-02T09:32:21.262Z,46.70
2018-10-02T09:34:54.985Z,46.70
2018-10-02T09:37:28.943Z,45.10
2018-10-02T09:40:02.826Z,45.40
2018-10-02T09:42:36.738Z,44.90
2018-10-02T09:45:04.862Z,44.50
2018-10-02T09:47:33.292Z,44.20
2018-10-02T09:50:01.497Z,45.00
2018-10-02T09:52:29.746Z,43.80
2018-10-02T09:54:57.953Z,43.60
2018-10-02T09:57:26.176Z,44.10
2018-10-02T09:59:54.351Z,45.50
2018-10-02T10:02:28.284Z,45.40
2018-10-02T10:04:56.507Z,45.80
2018-10-02T10:07:24.702Z,45.50
2018-10-02T10:09:52.891Z,45.40
2018-10-02T10:12:21.091Z,45.10
2018-10-02T10:14:49.292Z,45.00
2018-10-02T10:17:17.573Z,44.80
2018-10-02T10:19:45.621Z,44.50
2018-10-02T10:22:13.828Z,44.30
2018-10-02T10:24:42.076Z,43.50
2018-10-02T10:27:10.538Z,42.80
2018-10-02T10:29:40.197Z,43.60
2018-10-02T10:32:08.904Z,43.20
2018-10-02T10:34:37.335Z,42.70
2018-10-02T10:37:05.647Z,42.80
2018-10-02T10:39:33.860Z,43.00
2018-10-02T10:42:02.075Z,41.90
2018-10-02T10:44:30.239Z,42.20
2018-10-02T10:46:58.487Z,42.60
2018-10-02T10:49:26.663Z,42.80
2018-10-02T10:51:54.881Z,42.80
2018-10-02T10:54:23.068Z,41.80
2018-10-02T10:56:51.304Z,42.20
2018-10-02T10:59:19.498Z,41.50
2018-10-02T11:01:47.694Z,41.40
2018-10-02T11:04:15.905Z,42.40
2018-10-02T11:06:44.038Z,43.20
2018-10-02T11:09:12.177Z,42.60
2018-10-02T11:11:40.268Z,41.90
2018-10-02T11:14:08.502Z,41.60
2018-10-02T11:16:36.696Z,42.40
2018-10-02T11:19:04.943Z,42.50
2018-10-02T11:21:33.136Z,42.80
2018-10-02T11:24:01.418Z,43.70
2018-10-02T11:26:29.581Z,43.20
2018-10-02T11:28:57.710Z,42.60
2018-10-02T11:31:26.072Z,43.30
2018-10-02T11:33:54.252Z,43.10
2018-10-02T11:36:22.405Z,43.20
2018-10-02T11:38:50.663Z,42.60
2018-10-02T11:41:18.862Z,42.60
2018-10-02T11:43:47.199Z,42.10
2018-10-02T11:46:15.312Z,41.00
2018-10-02T11:48:43.565Z,41.80
2018-10-02T11:51:11.765Z,41.60
2018-10-02T11:53:39.922Z,41.50
2018-10-02T11:56:08.364Z,41.70
2018-10-02T11:58:36.673Z,39.50
2018-10-02T12:01:04.980Z,39.00
2018-10-02T12:03:33.166Z,38.50
2018-10-02T12:06:01.284Z,38.50
2018-10-02T12:08:29.590Z,37.00
2018-10-02T12:10:57.773Z,37.20
2018-10-02T12:13:26.265Z,37.20
2018-10-02T12:15:54.335Z,35.90
2018-10-02T12:18:22.609Z,36.50
2018-10-02T12:20:50.786Z,36.20
2018-10-02T12:23:19.043Z,37.50
2018-10-02T12:25:47.336Z,38.00
2018-10-02T12:28:15.687Z,36.90
2018-10-02T12:30:43.978Z,36.30
2018-10-02T12:33:12.196Z,36.40
2018-10-02T12:35:40.428Z,37.20
2018-10-02T12:38:08.655Z,37.00
2018-10-02T12:40:36.959Z,37.30
2018-10-02T12:43:05.212Z,38.10
2018-10-02T12:45:33.388Z,38.70
2018-10-02T12:48:01.599Z,38.80
2018-10-02T12:50:29.881Z,38.30
2018-10-02T12:52:58.178Z,37.90
2018-10-02T12:55:26.327Z,38.40
2018-10-02T12:57:54.504Z,38.50
2018-10-02T13:00:22.833Z,39.20
2018-10-02T13:02:51.078Z,38.70
2018-10-02T13:05:19.231Z,39.30
2018-10-02T13:07:47.420Z,38.60
2018-10-02T13:10:15.600Z,38.70
2018-10-02T13:12:43.869Z,38.70
2018-10-02T13:15:12.173Z,38.60
2018-10-02T13:17:40.492Z,38.50
2018-10-02T13:20:08.772Z,39.00
2018-10-02T13:22:36.943Z,38.50
2018-10-02T13:25:05.215Z,39.00
2018-10-02T13:27:33.536Z,39.30
2018-10-02T13:30:01.936Z,39.60
2018-10-02T13:32:30.217Z,39.90
2018-10-02T13:34:58.482Z,40.80
2018-10-02T13:37:26.832Z,40.80
2018-10-02T13:39:55.143Z,40.90
2018-10-02T13:42:23.430Z,41.80
2018-10-02T13:44:51.836Z,42.60
2018-10-02T13:47:20.137Z,42.60
2018-10-02T13:49:48.343Z,42.70
2018-10-02T13:52:16.549Z,43.00
2018-10-02T13:54:44.772Z,43.30
2018-10-02T13:57:12.961Z,43.00
2018-10-02T13:59:41.356Z,43.50
2018-10-02T14:02:09.674Z,43.60
2018-10-02T14:04:38.000Z,43.60
2018-10-02T14:07:06.274Z,43.90
2018-10-02T14:09:34.703Z,45.80
2018-10-02T14:12:02.947Z,47.00
2018-10-02T14:14:31.216Z,47.20
2018-10-02T14:16:59.426Z,48.70
2018-10-02T14:19:27.754Z,49.20
2018-10-02T14:21:55.925Z,50.10
2018-10-02T14:24:24.156Z,51.40
2018-10-02T14:26:53.199Z,52.50
2018-10-02T14:29:21.380Z,52.70
2018-10-02T14:31:49.570Z,52.90
2018-10-02T14:34:17.854Z,53.80
2018-10-02T14:36:46.639Z,54.10
2018-10-02T14:39:14.851Z,54.20
2018-10-02T14:41:43.111Z,53.90
2018-10-02T14:44:11.452Z,54.10
2018-10-02T14:46:39.821Z,54.40
2018-10-02T14:49:08.004Z,54.50
2018-10-02T14:51:36.294Z,54.30
2018-10-02T14:54:04.607Z,54.30
2018-10-02T14:56:32.815Z,54.40
2018-10-02T14:59:01.103Z,55.20
2018-10-02T15:01:29.448Z,55.20
2018-10-02T15:03:57.941Z,55.50
2018-10-02T15:06:26.252Z,55.30
2018-10-02T15:08:54.437Z,55.60
2018-10-02T15:11:22.664Z,55.60
2018-10-02T15:13:52.565Z,55.80
2018-10-02T15:16:20.769Z,55.60
2018-10-02T15:18:49.076Z,55.20
2018-10-02T15:21:17.272Z,55.60
2018-10-02T15:23:45.494Z,55.00
2018-10-02T15:26:13.760Z,55.30
2018-10-02T15:28:42.052Z,55.30
2018-10-02T15:31:10.323Z,54.80
2018-10-02T15:33:38.619Z,55.20
2018-10-02T15:36:06.927Z,54.00
2018-10-02T15:38:35.122Z,53.10
2018-10-02T15:41:03.336Z,53.00
2018-10-02T15:43:31.593Z,52.80
2018-10-02T15:45:59.906Z,52.20
2018-10-02T15:48:28.317Z,52.40
2018-10-02T15:50:56.571Z,51.90
2018-10-02T15:53:24.783Z,52.10
2018-10-02T15:55:53.043Z,51.70
2018-10-02T15:58:21.280Z,51.50
2018-10-02T16:00:49.512Z,51.20
2018-10-02T16:03:17.825Z,51.50
2018-10-02T16:05:46.159Z,51.30
2018-10-02T16:08:14.382Z,51.50
2018-10-02T16:10:42.619Z,50.80
2018-10-02T16:13:11.092Z,50.60
2018-10-02T16:15:39.394Z,50.30
2018-10-02T16:18:07.694Z,50.00
2018-10-02T16:20:35.819Z,50.50
2018-10-02T16:23:04.116Z,50.50
2018-10-02T16:25:32.473Z,50.50
2018-10-02T16:28:00.793Z,50.70
2018-10-02T16:30:29.105Z,50.60
2018-10-02T16:32:58.224Z,51.00
2018-10-02T16:35:26.513Z,50.70
2018-10-02T16:37:54.781Z,50.70
2018-10-02T16:40:23.013Z,50.80
2018-10-02T16:42:51.254Z,50.80
2018-10-02T16:45:19.527Z,51.30
2018-10-02T16:47:47.794Z,51.40
2018-10-02T16:50:16.178Z,51.50
2018-10-02T16:52:44.430Z,51.30
2018-10-02T16:55:12.751Z,51.70
2018-10-02T16:57:40.963Z,51.80
2018-10-02T17:00:09.394Z,51.60
2018-10-02T17:02:37.623Z,51.90
2018-10-02T17:05:06.073Z,52.30
2018-10-02T17:07:34.970Z,52.40
2018-10-02T17:10:03.413Z,52.10
2018-10-02T17:12:31.740Z,52.30
2018-10-02T17:14:59.980Z,52.40
2018-10-02T17:17:28.284Z,52.40
2018-10-02T17:19:56.717Z,52.30
2018-10-02T17:22:24.940Z,52.70
2018-10-02T17:24:53.308Z,52.80
2018-10-02T17:27:21.583Z,52.90
2018-10-02T17:29:49.896Z,52.90
2018-10-02T17:32:18.157Z,52.60
2018-10-02T17:34:46.378Z,53.00
2018-10-02T17:37:14.658Z,53.30
2018-10-02T17:39:42.872Z,53.00
2018-10-02T17:42:11.235Z,52.90
2018-10-02T17:44:39.633Z,53.00
2018-10-02T17:47:08.397Z,52.80
2018-10-02T17:49:37.708Z,53.10
2018-10-02T17:52:05.910Z,53.40
2018-10-02T17:54:34.251Z,53.20
2018-10-02T17:57:02.809Z,53.30
2018-10-02T17:59:31.335Z,53.30
2018-10-02T18:01:59.777Z,53.30
2018-10-02T18:04:28.073Z,53.50
2018-10-02T18:06:56.319Z,53.60
2018-10-02T18:09:24.588Z,53.50
2018-10-02T18:11:52.799Z,53.60
2018-10-02T18:14:21.090Z,53.80
2018-10-02T18:16:49.362Z,53.90
2018-10-02T18:19:17.648Z,53.70
2018-10-02T18:21:45.982Z,53.70
2018-10-02T18:24:14.376Z,53.80
2018-10-02T18:26:42.595Z,54.30
2018-10-02T18:29:10.878Z,54.40
2018-10-02T18:31:39.131Z,54.30
2018-10-02T18:34:07.476Z,54.50
2018-10-02T18:36:35.815Z,54.70
2018-10-02T18:44:02.247Z,55.20
2018-10-02T18:46:30.849Z,55.80
2018-10-02T18:52:11.900Z,56.00
2018-10-02T18:54:41.148Z,55.90
2018-10-02T18:57:09.762Z,55.80
2018-10-02T18:59:38.522Z,55.80
2018-10-02T19:02:07.166Z,56.00
2018-10-02T19:04:36.580Z,56.40
2018-10-02T19:07:05.399Z,56.90
2018-10-02T19:09:35.640Z,57.10
2018-10-02T19:12:12.389Z,57.10
2018-10-02T19:14:40.920Z,57.50
2018-10-02T19:17:09.838Z,58.00
2018-10-02T19:19:44.236Z,57.90
2018-10-02T19:22:18.695Z,58.20
2018-10-02T19:24:47.295Z,58.20
2018-10-02T19:30:07.551Z,58.60
2018-10-02T19:32:37.563Z,58.60
2018-10-02T19:35:06.557Z,58.50
2018-10-02T19:37:41.334Z,59.20
2018-10-02T19:42:59.496Z,58.80
2018-10-02T19:45:34.035Z,60.20
2018-10-02T19:48:03.469Z,59.30
2018-10-02T19:50:32.310Z,59.20
2018-10-02T19:53:00.858Z,59.50
2018-10-02T19:55:29.614Z,59.50
2018-10-02T19:57:58.118Z,59.60
2018-10-02T20:00:27.443Z,59.50
2018-10-02T20:02:55.968Z,59.60
2018-10-02T20:05:24.788Z,59.60
2018-10-02T20:07:53.875Z,59.60
2018-10-02T20:10:22.686Z,59.60
2018-10-02T20:12:51.238Z,59.40
2018-10-02T20:15:20.141Z,59.60
2018-10-02T20:17:49.285Z,59.90
2018-10-02T20:20:19.557Z,60.00
2018-10-02T20:22:48.305Z,60.10
2018-10-02T20:25:16.784Z,60.30
2018-10-02T20:27:45.893Z,60.40
2018-10-02T20:30:14.373Z,60.20
2018-10-02T20:32:43.357Z,60.30
2018-10-02T20:35:11.822Z,60.50
2018-10-02T20:37:41.678Z,60.70
2018-10-02T20:40:10.254Z,60.80
2018-10-02T20:42:39.141Z,60.60
2018-10-02T20:45:08.029Z,60.80
2018-10-02T20:47:36.810Z,60.60
2018-10-02T20:50:05.843Z,60.60
2018-10-02T20:52:34.478Z,60.80
2018-10-02T20:55:02.999Z,60.70
2018-10-02T20:57:31.398Z,60.40
2018-10-02T20:59:59.959Z,60.30
2018-10-02T21:02:28.561Z,60.10
2018-10-02T21:04:57.140Z,60.10
2018-10-02T21:07:25.593Z,59.80
2018-10-02T21:09:54.459Z,59.90
2018-10-02T21:12:22.966Z,59.90
2018-10-02T21:14:51.525Z,60.10
2018-10-02T21:17:19.887Z,60.10
2018-10-02T21:19:48.418Z,60.20
2018-10-02T21:22:16.993Z,60.10
2018-10-02T21:24:45.674Z,60.00
2018-10-02T21:27:14.369Z,60.30
2018-10-02T21:29:42.859Z,61.20
2018-10-02T21:32:11.945Z,60.90
2018-10-02T21:34:40.484Z,61.00
2018-10-02T21:37:08.948Z,61.10
2018-10-02T21:39:37.398Z,61.10
2018-10-02T21:42:06.152Z,61.60
2018-10-02T21:44:34.437Z,62.40
2018-10-02T21:47:02.843Z,61.60
2018-10-02T21:49:31.295Z,61.60
2018-10-02T21:51:59.793Z,61.50
2018-10-02T21:54:28.128Z,61.20
2018-10-02T21:56:56.549Z,61.50
2018-10-02T21:59:25.109Z,61.30
2018-10-02T22:01:53.501Z,61.50
2018-10-02T22:04:21.780Z,61.50
2018-10-02T22:06:50.144Z,61.60
2018-10-02T22:09:18.508Z,61.80
2018-10-02T22:11:46.944Z,61.70
2018-10-02T22:14:15.634Z,61.20
2018-10-02T22:16:44.511Z,61.20
2018-10-02T22:19:12.915Z,60.90
2018-10-02T22:21:41.498Z,60.80
2018-10-02T22:24:10.129Z,60.60
2018-10-02T22:26:38.630Z,60.10
2018-10-02T22:29:06.942Z,59.70
2018-10-02T22:31:35.452Z,59.80
2018-10-02T22:34:03.829Z,61.70
2018-10-02T22:36:32.271Z,62.20
2018-10-02T22:39:00.631Z,62.20
2018-10-02T22:41:28.931Z,62.80
2018-10-02T22:43:57.300Z,63.80
2018-10-02T22:46:25.762Z,64.10
2018-10-02T22:48:54.165Z,63.50
2018-10-02T22:51:22.546Z,62.70
2018-10-02T22:53:50.910Z,63.20
2018-10-02T22:56:19.473Z,62.60
2018-10-02T22:58:47.887Z,62.00
2018-10-02T23:01:16.226Z,62.70
2018-10-02T23:03:44.752Z,62.30
2018-10-02T23:06:12.982Z,62.20
2018-10-02T23:08:41.366Z,62.30
2018-10-02T23:11:09.650Z,62.00
2018-10-02T23:13:38.044Z,61.80
2018-10-02T23:16:06.543Z,61.60
2018-10-02T23:18:35.001Z,61.10
2018-10-02T23:21:03.496Z,60.70
2018-10-02T23:23:32.190Z,60.30
2018-10-02T23:26:00.609Z,60.00
2018-10-02T23:28:29.045Z,60.00
2018-10-02T23:30:57.457Z,59.80
2018-10-02T23:33:25.843Z,59.40
2018-10-02T23:35:54.198Z,59.50
2018-10-02T23:38:23.033Z,58.90
2018-10-02T23:40:51.434Z,58.80
2018-10-02T23:43:20.396Z,59.00
2018-10-02T23:45:48.995Z,58.60
2018-10-02T23:48:17.249Z,58.70
2018-10-02T23:50:45.489Z,58.60
2018-10-02T23:53:13.864Z,58.60
2018-10-02T23:55:42.322Z,58.20
2018-10-02T23:58:10.563Z,57.80
